DAL2142 KCMH-KSLC
Flight info
| Callsign | DAL2142 |
|---|---|
| Flight time | 3h 34m |
| Altitude | 34000 |
| Route | PKACZ TARRY DQN VINNE CADIZ PLL MNOSO/N0461F360 KP75G ONL BFF CKW CARTR1 |
| Aircraft | A320/M-SDE3FGHIRWY/LB1 |
Departure
| Time | 2026-05-09 00:41 |
|---|---|
| Airport | John Glenn Columbus International Airport (KCMH) |
Arrival
| Time | 2026-05-09 04:15 |
|---|---|
| Airport | Salt Lake City International Airport (KSLC) |
| Time | Latitude | Longitude | Altitude | Speed | Heading |
|---|---|---|---|---|---|
| 2026-05-09 00:26 | 39.99953 | -82.88469 | 819 ft | 0 kts | 209° |
| 2026-05-09 00:33 | 39.99960 | -82.88464 | 821 ft | 2 kts | 209° |
| 2026-05-09 00:33 | 39.99974 | -82.88454 | 820 ft | 2 kts | 209° |
| 2026-05-09 00:34 | 39.99988 | -82.88445 | 820 ft | 2 kts | 183° |
| 2026-05-09 00:34 | 40.00004 | -82.88447 | 819 ft | 2 kts | 150° |
| 2026-05-09 00:34 | 40.00016 | -82.88461 | 817 ft | 2 kts | 104° |
| 2026-05-09 00:34 | 40.00018 | -82.88472 | 817 ft | 0 kts | 96° |
| 2026-05-09 00:36 | 40.00018 | -82.88471 | 817 ft | 1 kts | 96° |
| 2026-05-09 00:36 | 40.00013 | -82.88414 | 820 ft | 10 kts | 96° |
| 2026-05-09 00:37 | 40.00012 | -82.88328 | 821 ft | 8 kts | 69° |
| 2026-05-09 00:37 | 40.00049 | -82.88299 | 822 ft | 5 kts | 14° |
| 2026-05-09 00:37 | 40.00076 | -82.88277 | 822 ft | 7 kts | 58° |
| 2026-05-09 00:37 | 40.00079 | -82.88185 | 823 ft | 11 kts | 93° |
| 2026-05-09 00:38 | 40.00073 | -82.88088 | 820 ft | 10 kts | 94° |
| 2026-05-09 00:38 | 40.00070 | -82.87998 | 820 ft | 8 kts | 87° |
| 2026-05-09 00:38 | 40.00078 | -82.87962 | 818 ft | 2 kts | 62° |
| 2026-05-09 00:38 | 40.00080 | -82.87959 | 817 ft | 0 kts | 59° |
| 2026-05-09 00:39 | 40.00098 | -82.87941 | 813 ft | 8 kts | 25° |
| 2026-05-09 00:39 | 40.00144 | -82.87940 | 817 ft | 5 kts | 348° |
| 2026-05-09 00:40 | 40.00162 | -82.87976 | 820 ft | 8 kts | 280° |
| 2026-05-09 00:40 | 40.00174 | -82.88144 | 821 ft | 47 kts | 275° |
| 2026-05-09 00:40 | 40.00215 | -82.88907 | 825 ft | 122 kts | 274° |
| 2026-05-09 00:41 | 40.00362 | -82.91707 | 1798 ft | 160 kts | 273° |
| 2026-05-09 00:41 | 40.00436 | -82.93160 | 2617 ft | 162 kts | 272° |
| 2026-05-09 00:41 | 40.00523 | -82.94689 | 3122 ft | 176 kts | 272° |
| 2026-05-09 00:41 | 40.00617 | -82.96374 | 3352 ft | 198 kts | 270° |
| 2026-05-09 00:42 | 40.00665 | -82.98286 | 3590 ft | 222 kts | 269° |
| 2026-05-09 00:42 | 40.00690 | -83.00400 | 3961 ft | 242 kts | 268° |
| 2026-05-09 00:42 | 40.00710 | -83.02633 | 4708 ft | 248 kts | 268° |
| 2026-05-09 00:42 | 40.00731 | -83.04869 | 5531 ft | 250 kts | 268° |
| 2026-05-09 00:43 | 40.00753 | -83.07144 | 6393 ft | 251 kts | 267° |
| 2026-05-09 00:43 | 40.00779 | -83.09428 | 7184 ft | 252 kts | 267° |
| 2026-05-09 00:43 | 40.00806 | -83.11720 | 8030 ft | 253 kts | 268° |
| 2026-05-09 00:43 | 40.00833 | -83.14027 | 8839 ft | 255 kts | 268° |
| 2026-05-09 00:44 | 40.00862 | -83.16345 | 9633 ft | 256 kts | 268° |
| 2026-05-09 00:44 | 40.00895 | -83.18674 | 10300 ft | 262 kts | 269° |
| 2026-05-09 00:44 | 40.00929 | -83.21129 | 10465 ft | 285 kts | 270° |
| 2026-05-09 00:44 | 40.00964 | -83.23808 | 10594 ft | 307 kts | 270° |
| 2026-05-09 00:45 | 40.01001 | -83.26679 | 10834 ft | 323 kts | 270° |
| 2026-05-09 00:45 | 40.01045 | -83.29652 | 11386 ft | 329 kts | 270° |
| 2026-05-09 00:45 | 40.01084 | -83.32655 | 12009 ft | 332 kts | 271° |
| 2026-05-09 00:45 | 40.01120 | -83.35687 | 12637 ft | 335 kts | 271° |
| 2026-05-09 00:46 | 40.01158 | -83.38739 | 13261 ft | 339 kts | 271° |
| 2026-05-09 00:46 | 40.01195 | -83.41836 | 13856 ft | 342 kts | 271° |
| 2026-05-09 00:46 | 40.01225 | -83.44910 | 14417 ft | 345 kts | 271° |
| 2026-05-09 00:46 | 40.01247 | -83.48061 | 14981 ft | 347 kts | 271° |
| 2026-05-09 00:47 | 40.01266 | -83.51220 | 15559 ft | 349 kts | 271° |
| 2026-05-09 00:47 | 40.01290 | -83.54403 | 16126 ft | 351 kts | 271° |
| 2026-05-09 00:47 | 40.01330 | -83.57568 | 16658 ft | 354 kts | 273° |
| 2026-05-09 00:47 | 40.01651 | -83.60771 | 17198 ft | 357 kts | 279° |
| 2026-05-09 00:48 | 40.02064 | -83.63982 | 17746 ft | 359 kts | 279° |
| 2026-05-09 00:48 | 40.02467 | -83.67220 | 18287 ft | 362 kts | 279° |
| 2026-05-09 00:48 | 40.02863 | -83.70432 | 18745 ft | 364 kts | 279° |
| 2026-05-09 00:48 | 40.03269 | -83.73702 | 19218 ft | 366 kts | 278° |
| 2026-05-09 00:49 | 40.03676 | -83.76986 | 19696 ft | 367 kts | 278° |
| 2026-05-09 00:49 | 40.04082 | -83.80282 | 20172 ft | 368 kts | 278° |
| 2026-05-09 00:49 | 40.04487 | -83.83596 | 20632 ft | 369 kts | 278° |
| 2026-05-09 00:49 | 40.04891 | -83.86878 | 21078 ft | 371 kts | 278° |
| 2026-05-09 00:50 | 40.05273 | -83.90214 | 21519 ft | 372 kts | 274° |
| 2026-05-09 00:50 | 40.05288 | -83.93590 | 21937 ft | 373 kts | 265° |
| 2026-05-09 00:50 | 40.05024 | -83.96963 | 22352 ft | 374 kts | 264° |
| 2026-05-09 00:50 | 40.04758 | -84.00342 | 22765 ft | 375 kts | 264° |
| 2026-05-09 00:51 | 40.04491 | -84.03741 | 23160 ft | 376 kts | 264° |
| 2026-05-09 00:51 | 40.04226 | -84.07143 | 23546 ft | 377 kts | 264° |
| 2026-05-09 00:51 | 40.03959 | -84.10558 | 23869 ft | 378 kts | 264° |
| 2026-05-09 00:51 | 40.03688 | -84.13980 | 24185 ft | 379 kts | 264° |
| 2026-05-09 00:52 | 40.03427 | -84.17365 | 24494 ft | 380 kts | 264° |
| 2026-05-09 00:52 | 40.03162 | -84.20808 | 24799 ft | 382 kts | 264° |
| 2026-05-09 00:52 | 40.02887 | -84.24271 | 25091 ft | 383 kts | 264° |
| 2026-05-09 00:52 | 40.02607 | -84.27729 | 25376 ft | 384 kts | 264° |
| 2026-05-09 00:53 | 40.02326 | -84.31206 | 25660 ft | 385 kts | 264° |
| 2026-05-09 00:53 | 40.02055 | -84.34640 | 25932 ft | 386 kts | 266° |
| 2026-05-09 00:53 | 40.02093 | -84.38139 | 26178 ft | 387 kts | 275° |
| 2026-05-09 00:53 | 40.02646 | -84.41584 | 26429 ft | 391 kts | 285° |
| 2026-05-09 00:54 | 40.03704 | -84.44871 | 26672 ft | 396 kts | 293° |
| 2026-05-09 00:54 | 40.04973 | -84.48067 | 26907 ft | 397 kts | 293° |
| 2026-05-09 00:54 | 40.06232 | -84.51280 | 27142 ft | 398 kts | 292° |
| 2026-05-09 00:54 | 40.07485 | -84.54498 | 27361 ft | 398 kts | 292° |
| 2026-05-09 00:55 | 40.08739 | -84.57725 | 27680 ft | 397 kts | 292° |
| 2026-05-09 00:55 | 40.09991 | -84.60939 | 28020 ft | 395 kts | 292° |
| 2026-05-09 00:55 | 40.11238 | -84.64138 | 28358 ft | 394 kts | 292° |
| 2026-05-09 00:55 | 40.12486 | -84.67326 | 28700 ft | 392 kts | 292° |
| 2026-05-09 00:56 | 40.13715 | -84.70464 | 29072 ft | 391 kts | 292° |
| 2026-05-09 00:56 | 40.14950 | -84.73620 | 29449 ft | 388 kts | 292° |
| 2026-05-09 00:56 | 40.16176 | -84.76758 | 29810 ft | 386 kts | 292° |
| 2026-05-09 00:56 | 40.16983 | -84.78828 | 30025 ft | 385 kts | 292° |
| 2026-05-09 00:57 | 40.18198 | -84.81946 | 30309 ft | 384 kts | 292° |
| 2026-05-09 00:57 | 40.19406 | -84.85053 | 30604 ft | 382 kts | 292° |
| 2026-05-09 00:57 | 40.20609 | -84.88153 | 30901 ft | 380 kts | 291° |
| 2026-05-09 00:57 | 40.21802 | -84.91235 | 31217 ft | 378 kts | 291° |
| 2026-05-09 00:58 | 40.22986 | -84.94303 | 31514 ft | 376 kts | 291° |
| 2026-05-09 00:58 | 40.24149 | -84.97318 | 31821 ft | 374 kts | 291° |
| 2026-05-09 00:58 | 40.25318 | -85.00349 | 32134 ft | 371 kts | 291° |
| 2026-05-09 00:58 | 40.26479 | -85.03355 | 32439 ft | 369 kts | 290° |
| 2026-05-09 00:59 | 40.27638 | -85.06351 | 32747 ft | 367 kts | 290° |
| 2026-05-09 00:59 | 40.28792 | -85.09334 | 33034 ft | 366 kts | 290° |
| 2026-05-09 00:59 | 40.29939 | -85.12303 | 33325 ft | 364 kts | 290° |
| 2026-05-09 00:59 | 40.31074 | -85.15253 | 33624 ft | 362 kts | 290° |
| 2026-05-09 01:00 | 40.32204 | -85.18199 | 33843 ft | 361 kts | 290° |
| 2026-05-09 01:00 | 40.33332 | -85.21137 | 33891 ft | 363 kts | 290° |
| 2026-05-09 01:00 | 40.35590 | -85.27028 | 33892 ft | 363 kts | 290° |
| 2026-05-09 01:01 | 40.37858 | -85.32975 | 33894 ft | 364 kts | 290° |
| 2026-05-09 01:01 | 40.40117 | -85.38883 | 33887 ft | 364 kts | 290° |
| 2026-05-09 01:02 | 40.42395 | -85.44861 | 33888 ft | 366 kts | 289° |
| 2026-05-09 01:02 | 40.44679 | -85.50863 | 33888 ft | 367 kts | 289° |
| 2026-05-09 01:03 | 40.46944 | -85.56836 | 33887 ft | 368 kts | 289° |
| 2026-05-09 01:03 | 40.49219 | -85.62851 | 33887 ft | 368 kts | 289° |
| 2026-05-09 01:04 | 40.51492 | -85.68875 | 33887 ft | 368 kts | 289° |
| 2026-05-09 01:04 | 40.53764 | -85.74914 | 33887 ft | 368 kts | 289° |
| 2026-05-09 01:05 | 40.56041 | -85.80952 | 33887 ft | 368 kts | 289° |
| 2026-05-09 01:06 | 40.59434 | -85.89986 | 33878 ft | 368 kts | 289° |
| 2026-05-09 01:06 | 40.61693 | -85.96031 | 33877 ft | 367 kts | 289° |
| 2026-05-09 01:07 | 40.63935 | -86.02051 | 33840 ft | 367 kts | 289° |
| 2026-05-09 01:07 | 40.66191 | -86.08103 | 33837 ft | 367 kts | 289° |
| 2026-05-09 01:08 | 40.68444 | -86.14143 | 33836 ft | 367 kts | 289° |
| 2026-05-09 01:08 | 40.70688 | -86.20203 | 33828 ft | 368 kts | 289° |
| 2026-05-09 01:09 | 40.72937 | -86.26271 | 33856 ft | 368 kts | 289° |
| 2026-05-09 01:09 | 40.75172 | -86.32311 | 33861 ft | 369 kts | 289° |
| 2026-05-09 01:10 | 40.77419 | -86.38398 | 33862 ft | 369 kts | 289° |
| 2026-05-09 01:10 | 40.79664 | -86.44503 | 33873 ft | 369 kts | 289° |
| 2026-05-09 01:11 | 40.81914 | -86.50615 | 33871 ft | 369 kts | 289° |
| 2026-05-09 01:11 | 40.84140 | -86.56691 | 33873 ft | 369 kts | 289° |
| 2026-05-09 01:12 | 40.86350 | -86.62813 | 33912 ft | 368 kts | 288° |
| 2026-05-09 01:12 | 40.88245 | -86.69106 | 33892 ft | 367 kts | 285° |
| 2026-05-09 01:13 | 40.89972 | -86.75422 | 33871 ft | 368 kts | 285° |
| 2026-05-09 01:13 | 40.91742 | -86.81787 | 33864 ft | 368 kts | 285° |
| 2026-05-09 01:14 | 40.93557 | -86.88138 | 33858 ft | 369 kts | 285° |
| 2026-05-09 01:14 | 40.95364 | -86.94447 | 33857 ft | 369 kts | 285° |
| 2026-05-09 01:15 | 40.97178 | -87.00803 | 33854 ft | 369 kts | 285° |
| 2026-05-09 01:15 | 40.98982 | -87.07164 | 33855 ft | 369 kts | 285° |
| 2026-05-09 01:16 | 41.00781 | -87.13537 | 33857 ft | 369 kts | 285° |
| 2026-05-09 01:16 | 41.02571 | -87.19877 | 33855 ft | 370 kts | 285° |
| 2026-05-09 01:17 | 41.05270 | -87.29455 | 33862 ft | 370 kts | 285° |
| 2026-05-09 01:17 | 41.07064 | -87.35844 | 33855 ft | 370 kts | 284° |
| 2026-05-09 01:18 | 41.08854 | -87.42236 | 33850 ft | 370 kts | 284° |
| 2026-05-09 01:18 | 41.10639 | -87.48632 | 33884 ft | 370 kts | 284° |
| 2026-05-09 01:19 | 41.12427 | -87.55049 | 33870 ft | 371 kts | 284° |
| 2026-05-09 01:19 | 41.14201 | -87.61436 | 33863 ft | 371 kts | 284° |
| 2026-05-09 01:20 | 41.15983 | -87.67872 | 33856 ft | 371 kts | 284° |
| 2026-05-09 01:20 | 41.17760 | -87.74307 | 33843 ft | 371 kts | 283° |
| 2026-05-09 01:21 | 41.19540 | -87.80760 | 33840 ft | 372 kts | 283° |
| 2026-05-09 01:21 | 41.21306 | -87.87180 | 33838 ft | 372 kts | 283° |
| 2026-05-09 01:22 | 41.23080 | -87.93651 | 33847 ft | 372 kts | 283° |
| 2026-05-09 01:22 | 41.24843 | -88.00073 | 33841 ft | 372 kts | 283° |
| 2026-05-09 01:23 | 41.26607 | -88.06552 | 33833 ft | 372 kts | 283° |
| 2026-05-09 01:23 | 41.28362 | -88.13022 | 33828 ft | 373 kts | 283° |
| 2026-05-09 01:24 | 41.30131 | -88.19533 | 33807 ft | 375 kts | 283° |
| 2026-05-09 01:24 | 41.31911 | -88.26076 | 33814 ft | 376 kts | 283° |
| 2026-05-09 01:25 | 41.33676 | -88.32593 | 33835 ft | 377 kts | 283° |
| 2026-05-09 01:25 | 41.35454 | -88.39197 | 33818 ft | 379 kts | 283° |
| 2026-05-09 01:26 | 41.37226 | -88.45820 | 33821 ft | 379 kts | 283° |
| 2026-05-09 01:26 | 41.38988 | -88.52423 | 33814 ft | 381 kts | 283° |
| 2026-05-09 01:27 | 41.40763 | -88.59074 | 33799 ft | 382 kts | 283° |
| 2026-05-09 01:27 | 41.42552 | -88.65751 | 33806 ft | 382 kts | 283° |
| 2026-05-09 01:28 | 41.44322 | -88.72410 | 33798 ft | 383 kts | 283° |
| 2026-05-09 01:28 | 41.46098 | -88.79106 | 33806 ft | 383 kts | 283° |
| 2026-05-09 01:29 | 41.47874 | -88.85815 | 33822 ft | 383 kts | 283° |
| 2026-05-09 01:29 | 41.49635 | -88.92501 | 33816 ft | 384 kts | 283° |
| 2026-05-09 01:30 | 41.51401 | -88.99231 | 33813 ft | 384 kts | 283° |
| 2026-05-09 01:30 | 41.53163 | -89.05980 | 33810 ft | 384 kts | 283° |
| 2026-05-09 01:31 | 41.54915 | -89.12691 | 33810 ft | 384 kts | 283° |
| 2026-05-09 01:31 | 41.56681 | -89.19451 | 33820 ft | 384 kts | 283° |
| 2026-05-09 01:32 | 41.58437 | -89.26200 | 33831 ft | 384 kts | 283° |
| 2026-05-09 01:32 | 41.60180 | -89.32916 | 33820 ft | 384 kts | 283° |
| 2026-05-09 01:33 | 41.61925 | -89.39684 | 33809 ft | 384 kts | 283° |
| 2026-05-09 01:33 | 41.63661 | -89.46408 | 33805 ft | 384 kts | 283° |
| 2026-05-09 01:34 | 41.65410 | -89.53179 | 33803 ft | 385 kts | 283° |
| 2026-05-09 01:34 | 41.67143 | -89.59961 | 33801 ft | 385 kts | 283° |
| 2026-05-09 01:35 | 41.68865 | -89.66710 | 33800 ft | 385 kts | 283° |
| 2026-05-09 01:35 | 41.70588 | -89.73488 | 33801 ft | 385 kts | 283° |
| 2026-05-09 01:36 | 41.72319 | -89.80293 | 33801 ft | 385 kts | 283° |
| 2026-05-09 01:36 | 41.74031 | -89.87048 | 33802 ft | 385 kts | 283° |
| 2026-05-09 01:37 | 41.75742 | -89.93838 | 33804 ft | 385 kts | 283° |
| 2026-05-09 01:37 | 41.77458 | -90.00635 | 33778 ft | 385 kts | 283° |
| 2026-05-09 01:38 | 41.79175 | -90.07450 | 33787 ft | 386 kts | 283° |
| 2026-05-09 01:38 | 41.80883 | -90.14261 | 33773 ft | 387 kts | 283° |
| 2026-05-09 01:39 | 41.82593 | -90.21122 | 33768 ft | 387 kts | 283° |
| 2026-05-09 01:39 | 41.84295 | -90.27953 | 33766 ft | 388 kts | 283° |
| 2026-05-09 01:40 | 41.86002 | -90.34827 | 33766 ft | 388 kts | 283° |
| 2026-05-09 01:40 | 41.87704 | -90.41702 | 33757 ft | 389 kts | 284° |
| 2026-05-09 01:41 | 41.89121 | -90.47457 | 33754 ft | 390 kts | 284° |
| 2026-05-09 01:41 | 41.90827 | -90.54380 | 33756 ft | 391 kts | 284° |
| 2026-05-09 01:42 | 41.92538 | -90.61323 | 33756 ft | 391 kts | 284° |
| 2026-05-09 01:42 | 41.94230 | -90.68234 | 33757 ft | 392 kts | 284° |
| 2026-05-09 01:43 | 41.95924 | -90.75197 | 33757 ft | 392 kts | 283° |
| 2026-05-09 01:43 | 41.97623 | -90.82199 | 33744 ft | 393 kts | 284° |
| 2026-05-09 01:44 | 41.99316 | -90.89160 | 33779 ft | 394 kts | 285° |
| 2026-05-09 01:44 | 42.01023 | -90.96201 | 33762 ft | 395 kts | 285° |
| 2026-05-09 01:45 | 42.02712 | -91.03207 | 33756 ft | 396 kts | 285° |
| 2026-05-09 01:45 | 42.04416 | -91.10272 | 33749 ft | 396 kts | 285° |
| 2026-05-09 01:46 | 42.06115 | -91.17335 | 33736 ft | 396 kts | 285° |
| 2026-05-09 01:46 | 42.07792 | -91.24368 | 33734 ft | 397 kts | 285° |
| 2026-05-09 01:47 | 42.09463 | -91.31421 | 33737 ft | 397 kts | 285° |
| 2026-05-09 01:47 | 42.11145 | -91.38516 | 33730 ft | 397 kts | 285° |
| 2026-05-09 01:48 | 42.12826 | -91.45612 | 33731 ft | 397 kts | 285° |
| 2026-05-09 01:48 | 42.14507 | -91.52712 | 33730 ft | 397 kts | 285° |
| 2026-05-09 01:49 | 42.16171 | -91.59784 | 33712 ft | 400 kts | 286° |
| 2026-05-09 01:49 | 42.17847 | -91.66955 | 33715 ft | 402 kts | 286° |
| 2026-05-09 01:50 | 42.19528 | -91.74154 | 33720 ft | 404 kts | 287° |
| 2026-05-09 01:50 | 42.21220 | -91.81408 | 33711 ft | 406 kts | 286° |
| 2026-05-09 01:51 | 42.22913 | -91.88697 | 33702 ft | 408 kts | 286° |
| 2026-05-09 01:51 | 42.24604 | -91.96016 | 33691 ft | 409 kts | 287° |
| 2026-05-09 01:52 | 42.26294 | -92.03365 | 33697 ft | 411 kts | 287° |
| 2026-05-09 01:52 | 42.27995 | -92.10753 | 33704 ft | 411 kts | 287° |
| 2026-05-09 01:53 | 42.29681 | -92.18106 | 33708 ft | 412 kts | 287° |
| 2026-05-09 01:53 | 42.31375 | -92.25508 | 33712 ft | 412 kts | 287° |
| 2026-05-09 01:54 | 42.33064 | -92.32919 | 33698 ft | 413 kts | 288° |
| 2026-05-09 01:54 | 42.33903 | -92.36628 | 33882 ft | 412 kts | 288° |
| 2026-05-09 01:54 | 42.34730 | -92.40289 | 34072 ft | 412 kts | 288° |
| 2026-05-09 01:55 | 42.35568 | -92.44002 | 34259 ft | 411 kts | 288° |
| 2026-05-09 01:55 | 42.36402 | -92.47700 | 34441 ft | 411 kts | 288° |
| 2026-05-09 01:55 | 42.37239 | -92.51402 | 34619 ft | 411 kts | 288° |
| 2026-05-09 01:55 | 42.38058 | -92.55106 | 34821 ft | 411 kts | 285° |
| 2026-05-09 01:56 | 42.38508 | -92.58933 | 34964 ft | 413 kts | 279° |
| 2026-05-09 01:56 | 42.38843 | -92.62797 | 35107 ft | 413 kts | 279° |
| 2026-05-09 01:56 | 42.39179 | -92.66666 | 35264 ft | 413 kts | 279° |
| 2026-05-09 01:56 | 42.39509 | -92.70486 | 35386 ft | 413 kts | 279° |
| 2026-05-09 01:57 | 42.39840 | -92.74349 | 35526 ft | 413 kts | 279° |
| 2026-05-09 01:57 | 42.40173 | -92.78224 | 35681 ft | 413 kts | 279° |
| 2026-05-09 01:57 | 42.40844 | -92.85964 | 35730 ft | 413 kts | 279° |
| 2026-05-09 01:58 | 42.41502 | -92.93632 | 35731 ft | 413 kts | 279° |
| 2026-05-09 01:58 | 42.42149 | -93.01370 | 35733 ft | 413 kts | 279° |
| 2026-05-09 01:59 | 42.42794 | -93.09102 | 35734 ft | 413 kts | 280° |
| 2026-05-09 01:59 | 42.43426 | -93.16804 | 35742 ft | 413 kts | 280° |
| 2026-05-09 02:00 | 42.44064 | -93.24531 | 35744 ft | 413 kts | 280° |
| 2026-05-09 02:00 | 42.44699 | -93.32262 | 35757 ft | 413 kts | 280° |
| 2026-05-09 02:01 | 42.45331 | -93.39991 | 35762 ft | 413 kts | 280° |
| 2026-05-09 02:01 | 42.45946 | -93.47681 | 35755 ft | 413 kts | 280° |
| 2026-05-09 02:02 | 42.46558 | -93.55411 | 35750 ft | 412 kts | 280° |
| 2026-05-09 02:02 | 42.47167 | -93.63148 | 35744 ft | 412 kts | 280° |
| 2026-05-09 02:03 | 42.47769 | -93.70882 | 35739 ft | 412 kts | 280° |
| 2026-05-09 02:03 | 42.48366 | -93.78564 | 35725 ft | 412 kts | 280° |
| 2026-05-09 02:04 | 42.48959 | -93.86247 | 35711 ft | 411 kts | 281° |
| 2026-05-09 02:04 | 42.49550 | -93.93958 | 35720 ft | 411 kts | 281° |
| 2026-05-09 02:05 | 42.50081 | -94.01681 | 35728 ft | 412 kts | 279° |
| 2026-05-09 02:05 | 42.50258 | -94.09481 | 35755 ft | 414 kts | 276° |
| 2026-05-09 02:06 | 42.50266 | -94.17246 | 35756 ft | 414 kts | 276° |
| 2026-05-09 02:07 | 42.50337 | -94.28914 | 35737 ft | 412 kts | 278° |
| 2026-05-09 02:07 | 42.50447 | -94.36686 | 35754 ft | 412 kts | 278° |
| 2026-05-09 02:08 | 42.50545 | -94.44447 | 35764 ft | 411 kts | 277° |
| 2026-05-09 02:08 | 42.50630 | -94.52210 | 35770 ft | 411 kts | 277° |
| 2026-05-09 02:09 | 42.50704 | -94.59939 | 35752 ft | 411 kts | 278° |
| 2026-05-09 02:09 | 42.50753 | -94.67642 | 35776 ft | 410 kts | 278° |
| 2026-05-09 02:10 | 42.50812 | -94.75369 | 35781 ft | 409 kts | 278° |
| 2026-05-09 02:10 | 42.50872 | -94.83044 | 35782 ft | 409 kts | 278° |
| 2026-05-09 02:11 | 42.50929 | -94.90763 | 35800 ft | 409 kts | 278° |
| 2026-05-09 02:11 | 42.50979 | -94.98462 | 35777 ft | 408 kts | 278° |
| 2026-05-09 02:12 | 42.51012 | -95.06118 | 35787 ft | 407 kts | 278° |
| 2026-05-09 02:12 | 42.51038 | -95.13800 | 35792 ft | 406 kts | 278° |
| 2026-05-09 02:13 | 42.51067 | -95.21469 | 35792 ft | 406 kts | 278° |
| 2026-05-09 02:13 | 42.51094 | -95.29121 | 35789 ft | 406 kts | 278° |
| 2026-05-09 02:14 | 42.51115 | -95.36724 | 35757 ft | 405 kts | 278° |
| 2026-05-09 02:14 | 42.51131 | -95.44377 | 35767 ft | 405 kts | 278° |
| 2026-05-09 02:15 | 42.51140 | -95.51975 | 35761 ft | 404 kts | 278° |
| 2026-05-09 02:15 | 42.51145 | -95.59610 | 35763 ft | 404 kts | 278° |
| 2026-05-09 02:16 | 42.51141 | -95.67191 | 35759 ft | 404 kts | 278° |
| 2026-05-09 02:16 | 42.51134 | -95.74816 | 35730 ft | 403 kts | 278° |
| 2026-05-09 02:17 | 42.51126 | -95.82438 | 35742 ft | 403 kts | 278° |
| 2026-05-09 02:17 | 42.51119 | -95.89998 | 35748 ft | 403 kts | 278° |
| 2026-05-09 02:18 | 42.51099 | -95.97607 | 35756 ft | 403 kts | 278° |
| 2026-05-09 02:18 | 42.51067 | -96.05170 | 35762 ft | 403 kts | 277° |
| 2026-05-09 02:19 | 42.51033 | -96.12794 | 35736 ft | 403 kts | 277° |
| 2026-05-09 02:19 | 42.51006 | -96.20345 | 35750 ft | 402 kts | 277° |
| 2026-05-09 02:20 | 42.50964 | -96.27944 | 35756 ft | 402 kts | 277° |
| 2026-05-09 02:20 | 42.50907 | -96.35538 | 35761 ft | 403 kts | 277° |
| 2026-05-09 02:21 | 42.50855 | -96.43139 | 35767 ft | 403 kts | 277° |
| 2026-05-09 02:21 | 42.50803 | -96.50681 | 35742 ft | 403 kts | 277° |
| 2026-05-09 02:22 | 42.50745 | -96.58285 | 35763 ft | 403 kts | 277° |
| 2026-05-09 02:22 | 42.50678 | -96.65890 | 35774 ft | 403 kts | 277° |
| 2026-05-09 02:23 | 42.50606 | -96.73456 | 35790 ft | 403 kts | 277° |
| 2026-05-09 02:23 | 42.50535 | -96.81074 | 35797 ft | 403 kts | 277° |
| 2026-05-09 02:24 | 42.50449 | -96.88652 | 35781 ft | 403 kts | 277° |
| 2026-05-09 02:24 | 42.50359 | -96.96270 | 35795 ft | 403 kts | 277° |
| 2026-05-09 02:25 | 42.50263 | -97.03843 | 35806 ft | 403 kts | 277° |
| 2026-05-09 02:25 | 42.50166 | -97.11449 | 35810 ft | 403 kts | 277° |
| 2026-05-09 02:26 | 42.50065 | -97.19054 | 35813 ft | 403 kts | 277° |
| 2026-05-09 02:26 | 42.49964 | -97.26607 | 35816 ft | 403 kts | 277° |
| 2026-05-09 02:27 | 42.49856 | -97.34201 | 35827 ft | 403 kts | 277° |
| 2026-05-09 02:27 | 42.49744 | -97.41800 | 35827 ft | 403 kts | 277° |
| 2026-05-09 02:28 | 42.49623 | -97.49374 | 35828 ft | 403 kts | 277° |
| 2026-05-09 02:28 | 42.49493 | -97.56945 | 35829 ft | 403 kts | 276° |
| 2026-05-09 02:29 | 42.49354 | -97.64554 | 35810 ft | 403 kts | 276° |
| 2026-05-09 02:29 | 42.49242 | -97.70887 | 35821 ft | 403 kts | 276° |
| 2026-05-09 02:30 | 42.49106 | -97.78455 | 35838 ft | 403 kts | 276° |
| 2026-05-09 02:30 | 42.48959 | -97.86070 | 35842 ft | 403 kts | 276° |
| 2026-05-09 02:31 | 42.48805 | -97.93670 | 35847 ft | 403 kts | 276° |
| 2026-05-09 02:31 | 42.48647 | -98.01239 | 35810 ft | 403 kts | 276° |
| 2026-05-09 02:32 | 42.48489 | -98.08841 | 35826 ft | 403 kts | 276° |
| 2026-05-09 02:32 | 42.48330 | -98.16408 | 35835 ft | 403 kts | 276° |
| 2026-05-09 02:33 | 42.48162 | -98.24022 | 35840 ft | 404 kts | 276° |
| 2026-05-09 02:33 | 42.47980 | -98.31647 | 35842 ft | 404 kts | 276° |
| 2026-05-09 02:34 | 42.47793 | -98.39211 | 35815 ft | 404 kts | 276° |
| 2026-05-09 02:34 | 42.47609 | -98.46835 | 35875 ft | 404 kts | 276° |
| 2026-05-09 02:35 | 42.47422 | -98.54455 | 35894 ft | 404 kts | 276° |
| 2026-05-09 02:35 | 42.47223 | -98.62015 | 35895 ft | 404 kts | 276° |
| 2026-05-09 02:36 | 42.46953 | -98.69638 | 35898 ft | 409 kts | 271° |
| 2026-05-09 02:36 | 42.46212 | -98.77300 | 35874 ft | 410 kts | 271° |
| 2026-05-09 02:37 | 42.45451 | -98.84916 | 35882 ft | 410 kts | 271° |
| 2026-05-09 02:37 | 42.44671 | -98.92577 | 35883 ft | 410 kts | 271° |
| 2026-05-09 02:38 | 42.43891 | -99.00235 | 35880 ft | 410 kts | 271° |
| 2026-05-09 02:38 | 42.43123 | -99.07883 | 35877 ft | 410 kts | 271° |
| 2026-05-09 02:39 | 42.42350 | -99.15497 | 35856 ft | 410 kts | 271° |
| 2026-05-09 02:39 | 42.41559 | -99.23154 | 35869 ft | 410 kts | 271° |
| 2026-05-09 02:40 | 42.40770 | -99.30756 | 35884 ft | 409 kts | 271° |
| 2026-05-09 02:40 | 42.39974 | -99.38399 | 35886 ft | 409 kts | 271° |
| 2026-05-09 02:41 | 42.39176 | -99.45989 | 35884 ft | 409 kts | 271° |
| 2026-05-09 02:41 | 42.38366 | -99.53617 | 35867 ft | 409 kts | 271° |
| 2026-05-09 02:42 | 42.37552 | -99.61250 | 35881 ft | 409 kts | 271° |
| 2026-05-09 02:42 | 42.36741 | -99.68880 | 35896 ft | 409 kts | 271° |
| 2026-05-09 02:43 | 42.35929 | -99.76458 | 35900 ft | 409 kts | 271° |
| 2026-05-09 02:43 | 42.35097 | -99.84084 | 35862 ft | 409 kts | 271° |
| 2026-05-09 02:44 | 42.34259 | -99.91714 | 35873 ft | 410 kts | 271° |
| 2026-05-09 02:44 | 42.33425 | -99.99302 | 35890 ft | 410 kts | 271° |
| 2026-05-09 02:45 | 42.32582 | -100.06939 | 35893 ft | 410 kts | 271° |
| 2026-05-09 02:45 | 42.31733 | -100.14577 | 35899 ft | 411 kts | 271° |
| 2026-05-09 02:46 | 42.30889 | -100.22162 | 35864 ft | 411 kts | 271° |
| 2026-05-09 02:46 | 42.30024 | -100.29822 | 35873 ft | 412 kts | 271° |
| 2026-05-09 02:47 | 42.29162 | -100.37443 | 35877 ft | 412 kts | 271° |
| 2026-05-09 02:47 | 42.28286 | -100.45105 | 35891 ft | 413 kts | 271° |
| 2026-05-09 02:48 | 42.27398 | -100.52778 | 35900 ft | 413 kts | 271° |
| 2026-05-09 02:48 | 42.26513 | -100.60457 | 35879 ft | 413 kts | 270° |
| 2026-05-09 02:49 | 42.25636 | -100.68079 | 35880 ft | 414 kts | 270° |
| 2026-05-09 02:49 | 42.24743 | -100.75776 | 35888 ft | 414 kts | 270° |
| 2026-05-09 02:50 | 42.23838 | -100.83466 | 35889 ft | 414 kts | 270° |
| 2026-05-09 02:50 | 42.22937 | -100.91099 | 35913 ft | 414 kts | 270° |
| 2026-05-09 02:51 | 42.22019 | -100.98792 | 35913 ft | 415 kts | 270° |
| 2026-05-09 02:51 | 42.21091 | -101.06471 | 35915 ft | 415 kts | 270° |
| 2026-05-09 02:52 | 42.20165 | -101.14170 | 35916 ft | 415 kts | 270° |
| 2026-05-09 02:52 | 42.19243 | -101.21807 | 35917 ft | 415 kts | 270° |
| 2026-05-09 02:53 | 42.18312 | -101.29491 | 35923 ft | 415 kts | 270° |
| 2026-05-09 02:53 | 42.17369 | -101.37183 | 35901 ft | 415 kts | 269° |
| 2026-05-09 02:54 | 42.16419 | -101.44851 | 35912 ft | 415 kts | 269° |
| 2026-05-09 02:54 | 42.15474 | -101.52486 | 35918 ft | 415 kts | 269° |
| 2026-05-09 02:55 | 42.14524 | -101.60166 | 35920 ft | 415 kts | 269° |
| 2026-05-09 02:55 | 42.13576 | -101.67800 | 35886 ft | 415 kts | 269° |
| 2026-05-09 02:56 | 42.12614 | -101.75477 | 35899 ft | 415 kts | 269° |
| 2026-05-09 02:56 | 42.11650 | -101.83097 | 35907 ft | 415 kts | 269° |
| 2026-05-09 02:57 | 42.10667 | -101.90749 | 35912 ft | 415 kts | 269° |
| 2026-05-09 02:57 | 42.09687 | -101.98415 | 35917 ft | 415 kts | 269° |
| 2026-05-09 02:58 | 42.08697 | -102.06074 | 35875 ft | 415 kts | 268° |
| 2026-05-09 02:58 | 42.07705 | -102.13741 | 35884 ft | 415 kts | 268° |
| 2026-05-09 02:59 | 42.06716 | -102.21367 | 35891 ft | 415 kts | 268° |
| 2026-05-09 02:59 | 42.05709 | -102.29037 | 35899 ft | 416 kts | 268° |
| 2026-05-09 03:00 | 42.04702 | -102.36710 | 35906 ft | 416 kts | 268° |
| 2026-05-09 03:00 | 42.03699 | -102.44320 | 35870 ft | 416 kts | 268° |
| 2026-05-09 03:01 | 42.02675 | -102.51992 | 35871 ft | 417 kts | 268° |
| 2026-05-09 03:01 | 42.01647 | -102.59687 | 35877 ft | 418 kts | 268° |
| 2026-05-09 03:02 | 42.00608 | -102.67399 | 35955 ft | 418 kts | 268° |
| 2026-05-09 03:02 | 41.99570 | -102.75072 | 35964 ft | 419 kts | 268° |
| 2026-05-09 03:03 | 41.98522 | -102.82809 | 35941 ft | 419 kts | 267° |
| 2026-05-09 03:03 | 41.97483 | -102.90476 | 35945 ft | 420 kts | 267° |
| 2026-05-09 03:04 | 41.96423 | -102.98210 | 35946 ft | 421 kts | 267° |
| 2026-05-09 03:04 | 41.95344 | -103.05953 | 35940 ft | 421 kts | 267° |
| 2026-05-09 03:05 | 41.94275 | -103.13680 | 35876 ft | 421 kts | 267° |
| 2026-05-09 03:05 | 41.93208 | -103.21417 | 35910 ft | 420 kts | 267° |
| 2026-05-09 03:06 | 41.92133 | -103.29082 | 35932 ft | 420 kts | 267° |
| 2026-05-09 03:06 | 41.91051 | -103.36791 | 35949 ft | 420 kts | 266° |
| 2026-05-09 03:07 | 41.89955 | -103.44493 | 35966 ft | 420 kts | 266° |
| 2026-05-09 03:07 | 41.89357 | -103.52195 | 35951 ft | 411 kts | 275° |
| 2026-05-09 03:08 | 41.89229 | -103.59865 | 35957 ft | 411 kts | 275° |
| 2026-05-09 03:08 | 41.89091 | -103.67501 | 35961 ft | 411 kts | 275° |
| 2026-05-09 03:09 | 41.88952 | -103.75180 | 35959 ft | 411 kts | 275° |
| 2026-05-09 03:09 | 41.88814 | -103.82834 | 35950 ft | 411 kts | 275° |
| 2026-05-09 03:10 | 41.88662 | -103.90512 | 35919 ft | 411 kts | 275° |
| 2026-05-09 03:10 | 41.88510 | -103.98204 | 35918 ft | 412 kts | 275° |
| 2026-05-09 03:11 | 41.88349 | -104.05903 | 35910 ft | 412 kts | 275° |
| 2026-05-09 03:11 | 41.88180 | -104.13541 | 35944 ft | 412 kts | 275° |
| 2026-05-09 03:12 | 41.88013 | -104.21246 | 35949 ft | 412 kts | 275° |
| 2026-05-09 03:12 | 41.87845 | -104.28919 | 35927 ft | 412 kts | 274° |
| 2026-05-09 03:13 | 41.87574 | -104.40478 | 35946 ft | 413 kts | 274° |
| 2026-05-09 03:13 | 41.87387 | -104.48185 | 35935 ft | 413 kts | 274° |
| 2026-05-09 03:14 | 41.87192 | -104.55899 | 35952 ft | 413 kts | 274° |
| 2026-05-09 03:14 | 41.86994 | -104.63567 | 35962 ft | 413 kts | 274° |
| 2026-05-09 03:15 | 41.86791 | -104.71296 | 35973 ft | 413 kts | 274° |
| 2026-05-09 03:15 | 41.86588 | -104.78968 | 35980 ft | 413 kts | 274° |
| 2026-05-09 03:16 | 41.86374 | -104.86684 | 35978 ft | 413 kts | 274° |
| 2026-05-09 03:16 | 41.86158 | -104.94355 | 35958 ft | 413 kts | 274° |
| 2026-05-09 03:17 | 41.85968 | -105.00780 | 35936 ft | 413 kts | 273° |
| 2026-05-09 03:17 | 41.85740 | -105.08498 | 35946 ft | 413 kts | 273° |
| 2026-05-09 03:18 | 41.85512 | -105.16219 | 35950 ft | 413 kts | 273° |
| 2026-05-09 03:18 | 41.85277 | -105.23880 | 35946 ft | 413 kts | 273° |
| 2026-05-09 03:19 | 41.85029 | -105.31596 | 35926 ft | 413 kts | 273° |
| 2026-05-09 03:19 | 41.84781 | -105.39269 | 35922 ft | 414 kts | 272° |
| 2026-05-09 03:20 | 41.84529 | -105.46983 | 35926 ft | 414 kts | 272° |
| 2026-05-09 03:20 | 41.84273 | -105.54688 | 35918 ft | 414 kts | 272° |
| 2026-05-09 03:21 | 41.84007 | -105.62405 | 35923 ft | 414 kts | 272° |
| 2026-05-09 03:21 | 41.83739 | -105.70114 | 35903 ft | 414 kts | 272° |
| 2026-05-09 03:22 | 41.83462 | -105.77822 | 35910 ft | 414 kts | 272° |
| 2026-05-09 03:22 | 41.83181 | -105.85531 | 35905 ft | 414 kts | 272° |
| 2026-05-09 03:23 | 41.82893 | -105.93243 | 35901 ft | 414 kts | 272° |
| 2026-05-09 03:23 | 41.82604 | -106.00948 | 35885 ft | 414 kts | 271° |
| 2026-05-09 03:24 | 41.82315 | -106.08609 | 35889 ft | 414 kts | 271° |
| 2026-05-09 03:24 | 41.82018 | -106.16327 | 35893 ft | 414 kts | 271° |
| 2026-05-09 03:25 | 41.81712 | -106.24055 | 35901 ft | 414 kts | 271° |
| 2026-05-09 03:25 | 41.81399 | -106.31779 | 35904 ft | 414 kts | 271° |
| 2026-05-09 03:26 | 41.81082 | -106.39453 | 35893 ft | 414 kts | 271° |
| 2026-05-09 03:26 | 41.80765 | -106.47162 | 35903 ft | 414 kts | 271° |
| 2026-05-09 03:27 | 41.80440 | -106.54869 | 35910 ft | 414 kts | 271° |
| 2026-05-09 03:27 | 41.80111 | -106.62575 | 35913 ft | 413 kts | 271° |
| 2026-05-09 03:28 | 41.79779 | -106.70231 | 35900 ft | 413 kts | 270° |
| 2026-05-09 03:28 | 41.79435 | -106.77903 | 35903 ft | 412 kts | 270° |
| 2026-05-09 03:29 | 41.79089 | -106.85570 | 35905 ft | 411 kts | 270° |
| 2026-05-09 03:29 | 41.78745 | -106.93217 | 36006 ft | 411 kts | 270° |
| 2026-05-09 03:30 | 41.78399 | -107.00822 | 36041 ft | 410 kts | 270° |
| 2026-05-09 03:30 | 41.78040 | -107.08473 | 36059 ft | 410 kts | 270° |
| 2026-05-09 03:31 | 41.77664 | -107.16120 | 36063 ft | 410 kts | 269° |
| 2026-05-09 03:31 | 41.77296 | -107.23704 | 36066 ft | 410 kts | 270° |
| 2026-05-09 03:32 | 41.76935 | -107.31342 | 36069 ft | 410 kts | 269° |
| 2026-05-09 03:32 | 41.76558 | -107.38979 | 36038 ft | 410 kts | 269° |
| 2026-05-09 03:33 | 41.76174 | -107.46574 | 35990 ft | 410 kts | 269° |
| 2026-05-09 03:33 | 41.75779 | -107.54207 | 35962 ft | 410 kts | 269° |
| 2026-05-09 03:34 | 41.75811 | -107.61810 | 35936 ft | 407 kts | 277° |
| 2026-05-09 03:34 | 41.76303 | -107.69381 | 35913 ft | 407 kts | 277° |
| 2026-05-09 03:35 | 41.76771 | -107.76916 | 35898 ft | 408 kts | 276° |
| 2026-05-09 03:35 | 41.77239 | -107.84490 | 35901 ft | 408 kts | 276° |
| 2026-05-09 03:36 | 41.77705 | -107.92071 | 35905 ft | 408 kts | 276° |
| 2026-05-09 03:36 | 41.78172 | -107.99655 | 35907 ft | 408 kts | 276° |
| 2026-05-09 03:37 | 41.78638 | -108.07243 | 35927 ft | 409 kts | 276° |
| 2026-05-09 03:37 | 41.79101 | -108.14834 | 35925 ft | 409 kts | 276° |
| 2026-05-09 03:38 | 41.79548 | -108.22399 | 35931 ft | 409 kts | 276° |
| 2026-05-09 03:38 | 41.79989 | -108.30000 | 35924 ft | 409 kts | 276° |
| 2026-05-09 03:39 | 41.80430 | -108.37571 | 35921 ft | 409 kts | 276° |
| 2026-05-09 03:39 | 41.80868 | -108.45190 | 35923 ft | 409 kts | 275° |
| 2026-05-09 03:40 | 41.81294 | -108.52760 | 35927 ft | 409 kts | 275° |
| 2026-05-09 03:40 | 41.81721 | -108.60367 | 35940 ft | 409 kts | 275° |
| 2026-05-09 03:41 | 41.82147 | -108.67973 | 35930 ft | 409 kts | 275° |
| 2026-05-09 03:41 | 41.82565 | -108.75581 | 35960 ft | 409 kts | 275° |
| 2026-05-09 03:42 | 41.82975 | -108.83192 | 35965 ft | 409 kts | 275° |
| 2026-05-09 03:42 | 41.83380 | -108.90814 | 35990 ft | 409 kts | 275° |
| 2026-05-09 03:43 | 41.83776 | -108.98443 | 36021 ft | 409 kts | 274° |
| 2026-05-09 03:43 | 41.84169 | -109.06014 | 36024 ft | 409 kts | 274° |
| 2026-05-09 03:44 | 41.84562 | -109.13638 | 35994 ft | 409 kts | 274° |
| 2026-05-09 03:44 | 41.84954 | -109.21262 | 35976 ft | 410 kts | 274° |
| 2026-05-09 03:45 | 41.85344 | -109.28876 | 35960 ft | 411 kts | 274° |
| 2026-05-09 03:45 | 41.85726 | -109.36545 | 35938 ft | 411 kts | 274° |
| 2026-05-09 03:46 | 41.86100 | -109.44168 | 35932 ft | 412 kts | 274° |
| 2026-05-09 03:46 | 41.86465 | -109.51852 | 35931 ft | 412 kts | 274° |
| 2026-05-09 03:47 | 41.86824 | -109.59534 | 35950 ft | 412 kts | 274° |
| 2026-05-09 03:47 | 41.87176 | -109.67176 | 35937 ft | 412 kts | 274° |
| 2026-05-09 03:48 | 41.87532 | -109.74865 | 35938 ft | 412 kts | 274° |
| 2026-05-09 03:48 | 41.87885 | -109.82570 | 35944 ft | 412 kts | 273° |
| 2026-05-09 03:49 | 41.88228 | -109.90196 | 35969 ft | 411 kts | 273° |
| 2026-05-09 03:49 | 41.88568 | -109.97865 | 35964 ft | 410 kts | 273° |
| 2026-05-09 03:50 | 41.88895 | -110.05506 | 35969 ft | 409 kts | 273° |
| 2026-05-09 03:50 | 41.89218 | -110.13101 | 35999 ft | 409 kts | 273° |
| 2026-05-09 03:51 | 41.89543 | -110.20725 | 36051 ft | 408 kts | 273° |
| 2026-05-09 03:51 | 41.89861 | -110.28346 | 36099 ft | 408 kts | 273° |
| 2026-05-09 03:52 | 41.90166 | -110.35898 | 36127 ft | 407 kts | 273° |
| 2026-05-09 03:52 | 41.90466 | -110.43500 | 36162 ft | 407 kts | 273° |
| 2026-05-09 03:53 | 41.90757 | -110.51060 | 36149 ft | 408 kts | 272° |
| 2026-05-09 03:53 | 41.90907 | -110.54880 | 35896 ft | 410 kts | 272° |
| 2026-05-09 03:53 | 41.91056 | -110.58714 | 35351 ft | 411 kts | 272° |
| 2026-05-09 03:54 | 41.91203 | -110.62559 | 34566 ft | 412 kts | 272° |
| 2026-05-09 03:54 | 41.91349 | -110.66420 | 33500 ft | 414 kts | 272° |
| 2026-05-09 03:54 | 41.91490 | -110.70232 | 32905 ft | 412 kts | 272° |
| 2026-05-09 03:54 | 41.91633 | -110.74087 | 32966 ft | 416 kts | 272° |
| 2026-05-09 03:55 | 41.91851 | -110.81877 | 32970 ft | 418 kts | 267° |
| 2026-05-09 03:55 | 41.91483 | -110.89656 | 32963 ft | 417 kts | 266° |
| 2026-05-09 03:56 | 41.91115 | -110.97424 | 32551 ft | 414 kts | 266° |
| 2026-05-09 03:56 | 41.90930 | -111.01280 | 31595 ft | 416 kts | 266° |
| 2026-05-09 03:56 | 41.90738 | -111.05177 | 30595 ft | 420 kts | 266° |
| 2026-05-09 03:57 | 41.90537 | -111.09110 | 29505 ft | 424 kts | 266° |
| 2026-05-09 03:57 | 41.90336 | -111.13072 | 28315 ft | 428 kts | 266° |
| 2026-05-09 03:57 | 41.90139 | -111.17029 | 27145 ft | 431 kts | 266° |
| 2026-05-09 03:57 | 41.89936 | -111.21061 | 25799 ft | 437 kts | 267° |
| 2026-05-09 03:58 | 41.89728 | -111.25133 | 24979 ft | 433 kts | 267° |
| 2026-05-09 03:58 | 41.89521 | -111.29149 | 24605 ft | 428 kts | 267° |
| 2026-05-09 03:58 | 41.89312 | -111.33138 | 24231 ft | 426 kts | 267° |
| 2026-05-09 03:58 | 41.89108 | -111.37043 | 23876 ft | 424 kts | 267° |
| 2026-05-09 03:59 | 41.88905 | -111.40985 | 23513 ft | 421 kts | 267° |
| 2026-05-09 03:59 | 41.88703 | -111.44897 | 23087 ft | 419 kts | 268° |
| 2026-05-09 03:59 | 41.88500 | -111.48793 | 22656 ft | 416 kts | 267° |
| 2026-05-09 03:59 | 41.88294 | -111.52656 | 22237 ft | 414 kts | 267° |
| 2026-05-09 04:00 | 41.88021 | -111.56493 | 21865 ft | 412 kts | 263° |
| 2026-05-09 04:00 | 41.87373 | -111.60237 | 21467 ft | 410 kts | 257° |
| 2026-05-09 04:00 | 41.86640 | -111.63927 | 21074 ft | 409 kts | 257° |
| 2026-05-09 04:00 | 41.85912 | -111.67598 | 20686 ft | 406 kts | 257° |
| 2026-05-09 04:01 | 41.85188 | -111.71247 | 20308 ft | 404 kts | 257° |
| 2026-05-09 04:01 | 41.84469 | -111.74881 | 19932 ft | 402 kts | 257° |
| 2026-05-09 04:01 | 41.83754 | -111.78497 | 19550 ft | 399 kts | 257° |
| 2026-05-09 04:01 | 41.83043 | -111.82089 | 19165 ft | 397 kts | 257° |
| 2026-05-09 04:02 | 41.82343 | -111.85625 | 18799 ft | 395 kts | 257° |
| 2026-05-09 04:02 | 41.81637 | -111.89182 | 18427 ft | 393 kts | 257° |
| 2026-05-09 04:02 | 41.80887 | -111.92700 | 18010 ft | 393 kts | 252° |
| 2026-05-09 04:02 | 41.79626 | -111.95956 | 17596 ft | 395 kts | 238° |
| 2026-05-09 04:03 | 41.77774 | -111.98705 | 17168 ft | 400 kts | 224° |
| 2026-05-09 04:03 | 41.76274 | -112.00152 | 16891 ft | 404 kts | 215° |
| 2026-05-09 04:03 | 41.72779 | -112.01960 | 16338 ft | 411 kts | 195° |
| 2026-05-09 04:03 | 41.70891 | -112.02317 | 16073 ft | 412 kts | 191° |
| 2026-05-09 04:04 | 41.68043 | -112.02764 | 15681 ft | 411 kts | 191° |
| 2026-05-09 04:04 | 41.65203 | -112.03196 | 15294 ft | 408 kts | 191° |
| 2026-05-09 04:04 | 41.62384 | -112.03623 | 15042 ft | 406 kts | 191° |
| 2026-05-09 04:04 | 41.59574 | -112.04054 | 15034 ft | 406 kts | 191° |
| 2026-05-09 04:05 | 41.56753 | -112.04476 | 15035 ft | 408 kts | 189° |
| 2026-05-09 04:05 | 41.53934 | -112.04504 | 14850 ft | 412 kts | 182° |
| 2026-05-09 04:05 | 41.51071 | -112.04361 | 14549 ft | 409 kts | 182° |
| 2026-05-09 04:05 | 41.48227 | -112.04198 | 14191 ft | 407 kts | 182° |
| 2026-05-09 04:06 | 41.45401 | -112.04027 | 13915 ft | 405 kts | 181° |
| 2026-05-09 04:06 | 41.42598 | -112.03858 | 13649 ft | 401 kts | 182° |
| 2026-05-09 04:06 | 41.39855 | -112.03699 | 13387 ft | 399 kts | 182° |
| 2026-05-09 04:06 | 41.37091 | -112.03544 | 13145 ft | 391 kts | 181° |
| 2026-05-09 04:07 | 41.34470 | -112.03392 | 13007 ft | 362 kts | 181° |
| 2026-05-09 04:07 | 41.32044 | -112.03248 | 12887 ft | 335 kts | 182° |
| 2026-05-09 04:07 | 41.29779 | -112.03118 | 12561 ft | 318 kts | 182° |
| 2026-05-09 04:07 | 41.27585 | -112.03002 | 12111 ft | 311 kts | 182° |
| 2026-05-09 04:08 | 41.25432 | -112.02894 | 12009 ft | 310 kts | 181° |
| 2026-05-09 04:08 | 41.23279 | -112.02731 | 11831 ft | 310 kts | 179° |
| 2026-05-09 04:08 | 41.21155 | -112.02498 | 11640 ft | 309 kts | 178° |
| 2026-05-09 04:08 | 41.19034 | -112.02231 | 11444 ft | 302 kts | 178° |
| 2026-05-09 04:09 | 41.16962 | -112.01955 | 11259 ft | 295 kts | 177° |
| 2026-05-09 04:09 | 41.14938 | -112.01686 | 11094 ft | 288 kts | 178° |
| 2026-05-09 04:09 | 41.12949 | -112.01450 | 10754 ft | 288 kts | 178° |
| 2026-05-09 04:09 | 41.10926 | -112.01218 | 10099 ft | 294 kts | 177° |
| 2026-05-09 04:10 | 41.08933 | -112.00984 | 9646 ft | 286 kts | 176° |
| 2026-05-09 04:10 | 41.06986 | -112.00753 | 9255 ft | 276 kts | 176° |
| 2026-05-09 04:10 | 41.05099 | -112.00532 | 8907 ft | 270 kts | 176° |
| 2026-05-09 04:10 | 41.03230 | -112.00315 | 8532 ft | 268 kts | 176° |
| 2026-05-09 04:11 | 41.01409 | -112.00102 | 8182 ft | 257 kts | 176° |
| 2026-05-09 04:11 | 40.99663 | -111.99898 | 7858 ft | 247 kts | 176° |
| 2026-05-09 04:11 | 40.97976 | -111.99701 | 7535 ft | 239 kts | 176° |
| 2026-05-09 04:11 | 40.96355 | -111.99511 | 7264 ft | 227 kts | 176° |
| 2026-05-09 04:12 | 40.94842 | -111.99335 | 6930 ft | 215 kts | 175° |
| 2026-05-09 04:12 | 40.93371 | -111.99164 | 6695 ft | 209 kts | 175° |
| 2026-05-09 04:12 | 40.91922 | -111.98995 | 6480 ft | 203 kts | 175° |
| 2026-05-09 04:12 | 40.90568 | -111.98837 | 6261 ft | 192 kts | 174° |
| 2026-05-09 04:13 | 40.89282 | -111.98688 | 6030 ft | 179 kts | 174° |
| 2026-05-09 04:13 | 40.88090 | -111.98549 | 5830 ft | 163 kts | 174° |
| 2026-05-09 04:13 | 40.86983 | -111.98420 | 5544 ft | 156 kts | 174° |
| 2026-05-09 04:13 | 40.85911 | -111.98295 | 5315 ft | 153 kts | 174° |
| 2026-05-09 04:14 | 40.84856 | -111.98172 | 5114 ft | 151 kts | 174° |
| 2026-05-09 04:14 | 40.83815 | -111.98055 | 4916 ft | 149 kts | 174° |
| 2026-05-09 04:14 | 40.82786 | -111.97925 | 4685 ft | 148 kts | 174° |
| 2026-05-09 04:14 | 40.81779 | -111.97810 | 4480 ft | 146 kts | 174° |
| 2026-05-09 04:15 | 40.80774 | -111.97697 | 4300 ft | 144 kts | 174° |
| 2026-05-09 04:15 | 40.79837 | -111.97587 | 4236 ft | 116 kts | 175° |
| 2026-05-09 04:15 | 40.79209 | -111.97517 | 4237 ft | 66 kts | 175° |
| 2026-05-09 04:15 | 40.78903 | -111.97482 | 4238 ft | 33 kts | 174° |
| 2026-05-09 04:16 | 40.78731 | -111.97467 | 4238 ft | 22 kts | 178° |
| 2026-05-09 04:16 | 40.78577 | -111.97501 | 4233 ft | 19 kts | 197° |
| 2026-05-09 04:16 | 40.78504 | -111.97542 | 4234 ft | 4 kts | 205° |
| 2026-05-09 04:16 | 40.78475 | -111.97575 | 4234 ft | 8 kts | 239° |
| 2026-05-09 04:17 | 40.78480 | -111.97636 | 4233 ft | 6 kts | 297° |
| 2026-05-09 04:17 | 40.78491 | -111.97650 | 4232 ft | 0 kts | 327° |
| 2026-05-09 04:17 | 40.78511 | -111.97653 | 4234 ft | 9 kts | 357° |
| 2026-05-09 04:17 | 40.78601 | -111.97662 | 4238 ft | 12 kts | 355° |
| 2026-05-09 04:18 | 40.78680 | -111.97671 | 4239 ft | 11 kts | 355° |
| 2026-05-09 04:18 | 40.78734 | -111.97683 | 4238 ft | 5 kts | 330° |
| 2026-05-09 04:18 | 40.78738 | -111.97738 | 4238 ft | 9 kts | 263° |
| 2026-05-09 04:18 | 40.78734 | -111.97821 | 4238 ft | 8 kts | 266° |
| 2026-05-09 04:19 | 40.78731 | -111.97889 | 4237 ft | 7 kts | 267° |
| 2026-05-09 04:19 | 40.78728 | -111.97954 | 4237 ft | 9 kts | 266° |
| 2026-05-09 04:19 | 40.78699 | -111.98017 | 4236 ft | 9 kts | 194° |
| 2026-05-09 04:19 | 40.78650 | -111.98015 | 4236 ft | 2 kts | 178° |
| 2026-05-09 04:20 | 40.78647 | -111.98015 | 4236 ft | 0 kts | 178° |